Аэропорт: Гомель. Гомель

ICAO: UMGG

METAR:
2024-07-24 14:30:00
UMGG 241430Z 08005MPS CAVOK 26/12 Q1012 NOSIG
TAF:
2024-07-24 10:59:00
TAF UMGG 241059Z 2412/2512 09005MPS 9999 BKN030 TX26/2411Z TN15/2502Z 
  TEMPO 2412/2418 13007MPS 4000 -SHRA BKN025CB 
  TEMPO 2418/2505 VRB02MPS 3000 BR SCT010 
  BECMG 2505/2507 12005MPS 
  TEMPO 2507/2512 16007MPS FEW025CB